Time;durP1;ratioP1;P1;durP2;ratioP2;P2;SDS_P1;SDS_P2;PMS_P1;PMS_P2;Temp;Humidity;BMP_temperature;BMP_pressure;BME280_temperature;BME280_humidity;BME280_pressure;Samples;Min_cycle;Max_cycle;Signal;HPM_P1;HPM_P2
2022/06/24 00:00:35;;;;;;;24.52;18.65;;;23.10;99.90;;;;;;5037916;28;20234;-79
2022/06/24 00:03:02;;;;;;;22.88;20.00;;;23.20;99.90;;;;;;5034810;28;20588;-80
2022/06/24 00:05:30;;;;;;;25.35;20.30;;;23.30;99.90;;;;;;5033838;28;20255;-80
2022/06/24 00:07:58;;;;;;;24.15;18.67;;;23.20;99.90;;;;;;5035152;28;20252;-81
2022/06/24 00:10:32;;;;;;;23.48;19.35;;;23.20;99.90;;;;;;5037206;28;20210;-79
2022/06/24 00:12:59;;;;;;;22.08;19.17;;;23.20;99.90;;;;;;5037725;28;20260;-79
2022/06/24 00:15:28;;;;;;;24.00;18.95;;;23.20;99.90;;;;;;5039312;28;20289;-80
2022/06/24 00:17:55;;;;;;;20.95;16.58;;;23.20;99.90;;;;;;5040377;28;20236;-79
2022/06/24 00:20:27;;;;;;;19.45;17.35;;;23.20;99.90;;;;;;5043279;28;20612;-84
2022/06/24 00:22:55;;;;;;;26.38;19.50;;;23.20;99.90;;;;;;5077254;28;20587;-81
2022/06/24 00:25:24;;;;;;;24.75;20.65;;;23.30;99.90;;;;;;5041855;28;20209;-79
2022/06/24 00:28:23;;;;;;;24.63;20.60;;;23.30;99.90;;;;;;5042748;28;20209;-79
2022/06/24 00:30:53;;;;;;;27.63;22.60;;;23.20;99.90;;;;;;5043719;28;20213;-78
2022/06/24 00:33:22;;;;;;;28.40;22.58;;;23.20;99.90;;;;;;5044612;28;20220;-79
2022/06/24 00:35:56;;;;;;;31.30;24.25;;;23.10;99.90;;;;;;5041759;28;20209;-79
2022/06/24 00:38:37;;;;;;;32.95;25.60;;;23.10;99.90;;;;;;5043578;28;20698;-80
2022/06/24 00:41:13;;;;;;;30.65;23.98;;;23.10;99.90;;;;;;5041626;28;20209;-80
2022/06/24 00:43:50;;;;;;;29.20;25.33;;;23.00;99.90;;;;;;5075875;28;20665;-81
2022/06/24 00:46:24;;;;;;;30.42;23.25;;;22.90;99.90;;;;;;5043158;28;20296;-80
2022/06/24 00:48:56;;;;;;;30.55;24.30;;;23.00;99.90;;;;;;5074124;28;20535;-80
2022/06/24 00:51:31;;;;;;;32.20;24.88;;;23.00;99.90;;;;;;5044715;28;20668;-80
2022/06/24 00:54:06;;;;;;;34.53;24.30;;;23.00;99.90;;;;;;5042446;28;20213;-79
2022/06/24 00:56:33;;;;;;;29.27;24.77;;;23.00;99.90;;;;;;5044869;28;20551;-79
2022/06/24 00:59:06;;;;;;;40.35;26.60;;;22.90;99.90;;;;;;5042334;28;20209;-79
2022/06/24 01:01:41;;;;;;;36.97;27.17;;;22.90;99.90;;;;;;5045116;28;20237;-79
2022/06/24 01:04:10;;;;;;;31.45;26.23;;;22.90;99.90;;;;;;5045618;28;20229;-80
2022/06/24 01:06:39;;;;;;;31.65;24.60;;;22.90;99.90;;;;;;5040932;28;20215;-80
2022/06/24 01:09:07;;;;;;;30.90;24.67;;;22.80;99.90;;;;;;5044852;28;20604;-80
2022/06/24 01:11:40;;;;;;;33.65;25.98;;;22.80;99.90;;;;;;5041180;28;20388;-79
2022/06/24 01:14:07;;;;;;;33.60;26.60;;;22.80;99.90;;;;;;5045340;28;20256;-80
2022/06/24 01:16:35;;;;;;;33.65;26.40;;;22.80;99.90;;;;;;5044978;28;20602;-79
2022/06/24 01:19:10;;;;;;;32.67;26.30;;;22.80;99.90;;;;;;5042034;28;20237;-79
2022/06/24 01:21:48;;;;;;;40.35;29.48;;;22.80;99.90;;;;;;5043036;28;20648;-81
2022/06/24 01:24:19;;;;;;;42.42;31.45;;;22.90;99.90;;;;;;5044936;28;20529;-79
2022/06/24 01:26:52;;;;;;;41.63;32.33;;;22.80;99.90;;;;;;5042599;28;20213;-79
2022/06/24 01:29:20;;;;;;;40.88;33.28;;;22.80;99.90;;;;;;5038501;28;20630;-79
2022/06/24 01:31:49;;;;;;;36.90;29.05;;;22.90;99.90;;;;;;5038483;28;20275;-77
2022/06/24 01:34:17;;;;;;;44.90;35.65;;;22.90;99.90;;;;;;5040143;28;20252;-78
2022/06/24 01:36:44;;;;;;;43.65;34.78;;;22.70;99.90;;;;;;5040296;28;20248;-80
2022/06/24 01:39:12;;;;;;;42.95;33.47;;;22.60;99.90;;;;;;5038248;28;20711;-78
2022/06/24 01:41:39;;;;;;;38.42;32.47;;;22.40;99.90;;;;;;5042563;28;20750;-78
2022/06/24 01:44:06;;;;;;;35.50;29.08;;;22.30;99.90;;;;;;5038546;28;20256;-78
2022/06/24 01:46:33;;;;;;;35.58;29.52;;;22.20;99.90;;;;;;5040768;28;20286;-78
2022/06/24 01:49:00;;;;;;;34.50;28.33;;;22.10;99.90;;;;;;5038817;28;20224;-78
2022/06/24 01:51:28;;;;;;;36.22;28.42;;;22.00;99.90;;;;;;5039334;28;20742;-79
2022/06/24 01:53:55;;;;;;;33.75;26.27;;;21.90;99.90;;;;;;5040493;28;20568;-77
2022/06/24 01:56:22;;;;;;;27.38;21.73;;;21.80;99.90;;;;;;5038329;28;20271;-78
2022/06/24 01:58:49;;;;;;;24.85;18.42;;;21.80;99.90;;;;;;5030297;28;20279;-78
2022/06/24 02:01:16;;;;;;;18.42;15.07;;;21.70;99.90;;;;;;5034918;28;20194;-78
2022/06/24 02:03:43;;;;;;;20.83;15.98;;;21.60;99.90;;;;;;5039252;28;20255;-80
2022/06/24 02:06:11;;;;;;;19.20;14.85;;;21.80;99.90;;;;;;5036264;28;20580;-77
2022/06/24 02:08:39;;;;;;;20.92;16.25;;;21.60;99.90;;;;;;5036632;28;20221;-77
2022/06/24 02:13:58;;;;;;;23.40;16.58;;;21.50;99.90;;;;;;5037665;28;20210;-77
2022/06/24 02:16:26;;;;;;;23.33;15.50;;;21.60;99.90;;;;;;5040387;28;20259;-79
2022/06/24 02:18:56;;;;;;;19.60;14.13;;;21.30;99.90;;;;;;5038402;28;20253;-78
2022/06/24 02:21:24;;;;;;;15.68;13.73;;;21.30;99.90;;;;;;5041424;28;20217;-78
2022/06/24 02:23:52;;;;;;;17.35;14.13;;;21.30;99.90;;;;;;5037448;28;20630;-78
2022/06/24 02:26:20;;;;;;;16.63;14.02;;;21.30;99.90;;;;;;5037524;28;20255;-78
2022/06/24 02:28:47;;;;;;;15.40;13.27;;;21.30;99.90;;;;;;5041043;28;20217;-78
2022/06/24 02:31:14;;;;;;;17.63;15.30;;;21.30;99.90;;;;;;5039240;28;20656;-78
2022/06/24 02:33:41;;;;;;;15.73;12.77;;;21.30;99.90;;;;;;5039526;28;20256;-78
2022/06/24 02:36:08;;;;;;;18.08;14.20;;;21.30;99.90;;;;;;5036999;28;20523;-76
2022/06/24 02:38:36;;;;;;;16.23;14.45;;;21.30;99.90;;;;;;5040142;28;20636;-78
2022/06/24 02:41:10;;;;;;;17.55;14.15;;;21.30;99.90;;;;;;5038314;28;20250;-78
2022/06/24 02:43:39;;;;;;;17.30;14.32;;;21.20;99.90;;;;;;5038651;28;20602;-77
2022/06/24 02:46:11;;;;;;;18.15;15.85;;;21.20;99.90;;;;;;5040158;28;20255;-78
2022/06/24 02:48:40;;;;;;;16.75;14.63;;;21.20;99.90;;;;;;5036923;28;20255;-77
2022/06/24 02:51:12;;;;;;;20.13;15.98;;;21.10;99.90;;;;;;5039138;28;20212;-79
2022/06/24 02:53:39;;;;;;;17.77;15.32;;;21.00;99.90;;;;;;5039544;28;20340;-78
2022/06/24 02:56:09;;;;;;;16.45;14.73;;;21.00;99.90;;;;;;5036430;28;20198;-79
2022/06/24 02:58:37;;;;;;;18.23;14.93;;;21.00;99.90;;;;;;5037009;28;20234;-79
2022/06/24 03:01:04;;;;;;;17.02;14.63;;;21.00;99.90;;;;;;5040428;28;20201;-80
2022/06/24 03:03:32;;;;;;;20.23;16.67;;;20.90;99.90;;;;;;5037850;28;20240;-78
2022/06/24 03:06:00;;;;;;;15.95;13.95;;;20.90;99.90;;;;;;5037671;28;20246;-79
2022/06/24 03:08:27;;;;;;;18.70;13.13;;;20.90;99.90;;;;;;5036235;28;20214;-78
2022/06/24 03:10:55;;;;;;;14.23;10.55;;;20.80;99.90;;;;;;5039513;28;20205;-77
2022/06/24 03:13:22;;;;;;;14.70;12.32;;;20.90;99.90;;;;;;5039294;28;20576;-77
2022/06/24 03:15:49;;;;;;;12.90;11.60;;;20.90;99.90;;;;;;5036376;28;20214;-80
2022/06/24 03:18:16;;;;;;;12.25;10.60;;;20.90;99.90;;;;;;5036999;28;20229;-79
2022/06/24 03:20:44;;;;;;;13.43;11.50;;;20.80;99.90;;;;;;5039595;28;20213;-80
2022/06/24 03:23:16;;;;;;;12.20;10.48;;;20.80;99.90;;;;;;5036929;28;20214;-79
2022/06/24 03:25:43;;;;;;;10.55;8.57;;;20.80;99.90;;;;;;5037316;28;20685;-78
2022/06/24 03:28:10;;;;;;;9.18;7.65;;;20.80;99.90;;;;;;5038215;28;20612;-78
2022/06/24 03:30:37;;;;;;;5.40;4.90;;;20.80;99.90;;;;;;5036483;28;20387;-79
2022/06/24 03:33:04;;;;;;;4.57;3.65;;;20.70;99.90;;;;;;5039776;28;20217;-78
2022/06/24 03:35:31;;;;;;;4.10;3.70;;;20.60;99.90;;;;;;5035657;28;20210;-78
2022/06/24 03:37:58;;;;;;;5.15;3.13;;;20.50;99.90;;;;;;5038119;28;20294;-79
2022/06/24 03:40:25;;;;;;;4.07;3.20;;;20.50;99.90;;;;;;5037452;28;20503;-80
2022/06/24 03:42:52;;;;;;;4.90;2.97;;;20.40;99.90;;;;;;5037130;28;20668;-76
2022/06/24 03:45:19;;;;;;;4.75;2.90;;;20.20;99.90;;;;;;5039425;28;20218;-78
2022/06/24 03:47:46;;;;;;;6.95;3.35;;;20.30;99.90;;;;;;5038855;28;20209;-78
2022/06/24 03:50:13;;;;;;;3.85;2.92;;;20.40;99.90;;;;;;5036060;28;20292;-79
2022/06/24 03:52:39;;;;;;;4.80;2.90;;;20.10;99.90;;;;;;5037811;28;20251;-77
2022/06/24 03:55:06;;;;;;;4.18;2.92;;;20.10;99.90;;;;;;5037128;28;20267;-78
2022/06/24 03:57:33;;;;;;;3.90;3.25;;;20.10;99.90;;;;;;5036946;28;20271;-78
2022/06/24 04:00:00;;;;;;;3.30;3.00;;;20.10;99.90;;;;;;5038545;28;20267;-77
2022/06/24 04:02:27;;;;;;;5.70;3.47;;;20.00;99.90;;;;;;5035735;28;20658;-75
2022/06/24 04:04:54;;;;;;;5.65;3.00;;;20.00;99.90;;;;;;5034894;28;20229;-78
2022/06/24 04:07:21;;;;;;;3.78;3.13;;;20.00;99.90;;;;;;5033782;28;20206;-78
2022/06/24 04:09:48;;;;;;;4.38;3.28;;;20.00;99.90;;;;;;5037504;28;20205;-79
2022/06/24 04:12:15;;;;;;;4.28;3.17;;;19.90;99.90;;;;;;5037768;28;20213;-77
2022/06/24 04:17:27;;;;;;;5.20;3.63;;;20.00;99.90;;;;;;5037845;28;20208;-77
2022/06/24 04:19:54;;;;;;;4.45;3.53;;;20.00;99.90;;;;;;5035476;28;20230;-77
2022/06/24 04:22:21;;;;;;;4.97;3.33;;;20.00;99.90;;;;;;5037848;28;20348;-75
2022/06/24 04:24:48;;;;;;;5.80;3.80;;;20.00;99.90;;;;;;5027422;28;20283;-78
2022/06/24 04:27:15;;;;;;;4.18;3.22;;;20.00;99.90;;;;;;5031535;28;20244;-79
2022/06/24 04:29:41;;;;;;;4.22;2.80;;;20.10;99.90;;;;;;5026998;28;20284;-78
2022/06/24 04:32:09;;;;;;;3.58;2.63;;;20.10;99.90;;;;;;5027404;28;20217;-79
2022/06/24 04:34:37;;;;;;;3.88;2.92;;;20.10;99.90;;;;;;5029591;28;20316;-79
2022/06/24 04:37:06;;;;;;;5.10;3.40;;;20.00;99.90;;;;;;5035033;28;20216;-77
2022/06/24 04:39:33;;;;;;;4.80;2.92;;;20.00;99.90;;;;;;5038007;28;20708;-79
2022/06/24 04:41:59;;;;;;;4.22;2.70;;;20.10;99.90;;;;;;5034954;28;20603;-78
2022/06/24 04:44:26;;;;;;;5.28;3.00;;;20.10;99.90;;;;;;5036921;28;20240;-80
2022/06/24 04:46:53;;;;;;;5.25;3.22;;;20.20;99.90;;;;;;5035760;28;20209;-79
2022/06/24 04:49:20;;;;;;;2.95;2.65;;;20.30;99.90;;;;;;5037818;28;20213;-78
2022/06/24 04:51:47;;;;;;;3.53;2.47;;;20.30;99.90;;;;;;5034981;28;20669;-77
2022/06/24 04:54:14;;;;;;;3.47;2.67;;;20.30;99.90;;;;;;5038149;28;20209;-78
2022/06/24 04:56:41;;;;;;;3.22;2.80;;;20.30;99.90;;;;;;5035787;28;20268;-79
2022/06/24 04:59:08;;;;;;;3.80;2.80;;;20.30;99.90;;;;;;5036639;28;20306;-78
2022/06/24 05:01:35;;;;;;;3.47;2.60;;;20.30;99.90;;;;;;5038548;28;20355;-79
2022/06/24 05:04:03;;;;;;;4.40;2.75;;;20.20;99.90;;;;;;5039456;28;20736;-75
2022/06/24 05:06:31;;;;;;;3.40;2.50;;;20.20;99.90;;;;;;5035909;28;20305;-79
2022/06/24 05:08:58;;;;;;;2.92;2.63;;;20.20;99.90;;;;;;5040004;28;20216;-75
2022/06/24 05:11:25;;;;;;;5.30;2.50;;;20.20;99.90;;;;;;5039911;28;20209;-78
2022/06/24 05:13:52;;;;;;;4.72;2.70;;;20.20;99.90;;;;;;5040815;28;20218;-77
2022/06/24 05:16:19;;;;;;;5.40;3.25;;;20.10;99.90;;;;;;5039345;28;20633;-78
2022/06/24 05:19:04;;;;;;;3.97;2.70;;;20.10;99.90;;;;;;5039292;28;20241;-77
2022/06/24 05:21:31;;;;;;;3.60;2.95;;;20.10;99.90;;;;;;5039363;28;20392;-77
2022/06/24 05:23:57;;;;;;;5.60;3.00;;;20.10;99.90;;;;;;5042061;28;20622;-77
2022/06/24 05:26:24;;;;;;;7.00;3.10;;;20.10;99.90;;;;;;5029809;28;20633;-76
2022/06/24 05:28:51;;;;;;;5.57;3.42;;;20.10;99.90;;;;;;5034683;28;20677;-79
2022/06/24 05:31:18;;;;;;;3.67;3.28;;;20.10;99.90;;;;;;5030379;28;20251;-77
2022/06/24 05:33:45;;;;;;;3.10;2.53;;;20.10;99.90;;;;;;5030220;28;20589;-78
2022/06/24 05:36:12;;;;;;;3.22;2.90;;;20.10;99.90;;;;;;5031465;28;20283;-77
2022/06/24 05:38:39;;;;;;;4.63;3.00;;;20.10;99.90;;;;;;5032987;28;20237;-79
2022/06/24 05:41:11;;;;;;;5.22;2.78;;;20.10;99.90;;;;;;5036227;28;20260;-77
2022/06/24 05:43:38;;;;;;;4.85;2.90;;;20.10;99.90;;;;;;5040119;28;20235;-79
2022/06/24 05:46:05;;;;;;;3.40;2.63;;;20.10;99.90;;;;;;5040571;28;20724;-79
2022/06/24 05:48:32;;;;;;;6.00;3.05;;;20.10;99.90;;;;;;5039114;28;20776;-79
2022/06/24 05:50:59;;;;;;;3.40;2.97;;;20.00;99.90;;;;;;5043485;28;20653;-79
2022/06/24 05:56:12;;;;;;;3.45;2.83;;;20.00;99.90;;;;;;5042562;28;20271;-80
2022/06/24 05:58:39;;;;;;;4.10;2.85;;;20.00;99.90;;;;;;5038006;28;20236;-80
2022/06/24 06:01:11;;;;;;;4.85;3.60;;;20.00;99.90;;;;;;5043759;28;20194;-81
2022/06/24 06:03:38;;;;;;;5.22;3.30;;;20.10;99.90;;;;;;5041579;28;20331;-80
2022/06/24 06:06:07;;;;;;;4.25;3.25;;;20.00;99.90;;;;;;5041053;28;20197;-80
2022/06/24 06:08:35;;;;;;;3.53;2.97;;;20.10;99.90;;;;;;5037480;28;20214;-80
2022/06/24 06:11:09;;;;;;;5.80;3.50;;;20.00;99.90;;;;;;5036483;28;20208;-77
2022/06/24 06:13:36;;;;;;;5.10;3.22;;;20.00;99.90;;;;;;5041118;28;20763;-80
2022/06/24 06:16:03;;;;;;;4.45;3.28;;;20.00;99.90;;;;;;5037458;28;20263;-79
2022/06/24 06:18:29;;;;;;;3.58;3.00;;;20.10;99.90;;;;;;5041357;28;20228;-79
2022/06/24 06:21:01;;;;;;;4.85;3.35;;;20.10;99.90;;;;;;5040681;28;20323;-81
2022/06/24 06:23:28;;;;;;;3.58;3.10;;;20.10;99.90;;;;;;5038660;28;20268;-79
2022/06/24 06:26:00;;;;;;;3.10;2.85;;;20.10;99.90;;;;;;5037416;28;20360;-78
2022/06/24 06:28:27;;;;;;;3.33;2.85;;;20.20;99.90;;;;;;5040722;28;20209;-77
2022/06/24 06:30:54;;;;;;;4.50;2.78;;;20.20;99.90;;;;;;5037821;28;20226;-77
2022/06/24 06:33:21;;;;;;;3.70;2.83;;;20.30;99.90;;;;;;5039537;28;20228;-76
2022/06/24 06:35:47;;;;;;;4.68;3.22;;;20.30;99.90;;;;;;5038912;28;20206;-78
2022/06/24 06:38:15;;;;;;;5.53;3.25;;;20.40;99.90;;;;;;5038513;28;20263;-80
2022/06/24 06:40:42;;;;;;;6.28;3.03;;;20.40;99.90;;;;;;5040078;28;20223;-78
2022/06/24 06:43:09;;;;;;;4.80;3.25;;;20.50;99.90;;;;;;5037019;28;20264;-80
2022/06/24 06:45:37;;;;;;;4.10;2.70;;;20.60;99.90;;;;;;5039828;28;20220;-80
2022/06/24 06:48:07;;;;;;;4.35;3.00;;;20.60;99.90;;;;;;5038196;28;20210;-81
2022/06/24 06:50:33;;;;;;;3.80;2.80;;;20.70;99.90;;;;;;5037601;28;20274;-79
2022/06/24 06:53:01;;;;;;;3.65;3.13;;;20.70;99.90;;;;;;5039858;28;20252;-80
2022/06/24 06:55:28;;;;;;;5.97;3.60;;;20.70;99.90;;;;;;5040599;28;20213;-80
2022/06/24 06:57:55;;;;;;;3.72;2.80;;;20.70;99.90;;;;;;5037782;28;20202;-78
2022/06/24 07:00:22;;;;;;;4.53;3.42;;;20.70;99.90;;;;;;5038994;28;20233;-78
2022/06/24 07:02:49;;;;;;;5.13;3.40;;;20.70;99.90;;;;;;5039887;28;20212;-79
2022/06/24 07:05:16;;;;;;;5.72;3.20;;;20.70;99.90;;;;;;5034313;28;20237;-78
2022/06/24 07:07:42;;;;;;;4.10;3.33;;;20.70;99.90;;;;;;5037739;28;20212;-79
2022/06/24 07:10:09;;;;;;;3.88;3.17;;;20.70;99.90;;;;;;5036849;28;20205;-79
2022/06/24 07:12:36;;;;;;;7.40;3.50;;;20.70;99.90;;;;;;5038904;28;20217;-78
2022/06/24 07:15:04;;;;;;;5.63;3.67;;;20.70;99.90;;;;;;5036841;28;20221;-77
2022/06/24 07:17:30;;;;;;;4.55;3.28;;;20.70;99.90;;;;;;5038083;28;20282;-78
2022/06/24 07:19:57;;;;;;;4.10;3.47;;;20.70;99.90;;;;;;5036079;28;20245;-79
2022/06/24 07:22:25;;;;;;;4.45;3.25;;;20.70;99.90;;;;;;5039459;28;20653;-78
2022/06/24 07:24:52;;;;;;;6.15;3.50;;;20.70;99.90;;;;;;5036925;28;20324;-77
2022/06/24 07:27:19;;;;;;;4.53;3.40;;;20.70;99.90;;;;;;5037705;28;20201;-79
2022/06/24 07:29:46;;;;;;;4.35;3.40;;;20.70;99.90;;;;;;5037335;28;20224;-79
2022/06/24 07:32:13;;;;;;;5.25;3.63;;;20.70;99.90;;;;;;5037842;28;20206;-77
2022/06/24 07:34:40;;;;;;;3.80;3.28;;;20.70;99.90;;;;;;5037875;28;20780;-79
2022/06/24 07:37:07;;;;;;;3.97;3.13;;;20.70;99.90;;;;;;5036118;28;20264;-78
2022/06/24 07:39:41;;;;;;;7.18;3.67;;;20.70;99.90;;;;;;5036571;28;20728;-79
2022/06/24 07:42:08;;;;;;;4.50;3.72;;;20.80;99.90;;;;;;5038136;28;20280;-77
2022/06/24 07:44:35;;;;;;;6.10;3.78;;;20.80;99.90;;;;;;5038256;28;20225;-79
2022/06/24 07:47:02;;;;;;;5.25;4.10;;;20.90;99.90;;;;;;5035566;28;20221;-78
2022/06/24 07:49:29;;;;;;;5.20;3.97;;;20.90;99.90;;;;;;5039049;28;20221;-79
2022/06/24 07:51:56;;;;;;;6.65;3.97;;;21.00;99.90;;;;;;5036789;28;20259;-78
2022/06/24 07:54:24;;;;;;;7.28;4.50;;;21.10;99.90;;;;;;5038696;28;20220;-80
2022/06/24 07:56:56;;;;;;;4.97;4.38;;;21.00;99.90;;;;;;5037825;28;20665;-77
2022/06/24 07:59:25;;;;;;;5.05;4.50;;;21.10;99.90;;;;;;5035692;28;20238;-77
2022/06/24 08:01:54;;;;;;;6.10;4.10;;;21.00;99.90;;;;;;5034963;28;20212;-79
2022/06/24 08:04:22;;;;;;;6.78;4.13;;;20.90;99.90;;;;;;5037809;28;20244;-77
2022/06/24 08:06:52;;;;;;;6.18;4.30;;;20.90;99.90;;;;;;5033337;28;20233;-79
2022/06/24 08:09:21;;;;;;;5.25;4.40;;;20.90;99.90;;;;;;5038710;28;20224;-79
2022/06/24 08:11:48;;;;;;;7.20;4.80;;;21.00;99.90;;;;;;5035842;28;20218;-79
2022/06/24 08:14:15;;;;;;;7.63;5.60;;;21.10;99.90;;;;;;5038589;28;20213;-79
2022/06/24 08:16:43;;;;;;;12.15;6.60;;;21.00;99.90;;;;;;5037573;28;20876;-81
2022/06/24 08:19:14;;;;;;;8.48;7.00;;;21.00;99.90;;;;;;5036311;28;20233;-82
2022/06/24 08:21:42;;;;;;;7.65;6.85;;;21.10;99.90;;;;;;5039023;28;20665;-80
2022/06/24 08:24:09;;;;;;;12.10;7.53;;;21.10;99.90;;;;;;5027381;28;20304;-78
2022/06/24 08:26:36;;;;;;;9.40;7.65;;;21.30;99.90;;;;;;5026883;28;20217;-78
2022/06/24 08:29:03;;;;;;;9.80;7.53;;;21.30;99.90;;;;;;5027237;28;20209;-77
2022/06/24 08:31:30;;;;;;;11.02;6.72;;;21.40;99.90;;;;;;5027453;28;20248;-79
2022/06/24 08:33:57;;;;;;;7.28;6.55;;;21.50;99.90;;;;;;5026673;28;20225;-78
2022/06/24 08:36:26;;;;;;;9.45;7.38;;;21.50;99.90;;;;;;5030621;28;20209;-78
2022/06/24 08:38:56;;;;;;;6.95;6.25;;;21.60;99.90;;;;;;5041100;28;20684;-79
2022/06/24 08:41:25;;;;;;;7.95;7.15;;;21.60;99.90;;;;;;5040138;28;20213;-77
2022/06/24 08:43:54;;;;;;;7.35;6.65;;;21.40;99.90;;;;;;5040265;28;20292;-80
2022/06/24 08:46:22;;;;;;;8.15;6.57;;;21.30;99.90;;;;;;5042563;28;20209;-78
2022/06/24 08:48:49;;;;;;;9.57;7.53;;;21.10;99.90;;;;;;5038128;28;20226;-77
2022/06/24 08:51:16;;;;;;;10.55;7.90;;;21.20;99.90;;;;;;5041294;28;20768;-78
2022/06/24 08:53:47;;;;;;;9.55;7.38;;;21.30;99.90;;;;;;5040634;28;20267;-77
2022/06/24 08:56:34;;;;;;;10.45;7.80;;;21.10;99.90;;;;;;5040355;28;20257;-78
2022/06/24 08:59:01;;;;;;;10.93;7.22;;;21.20;99.90;;;;;;5039839;28;20214;-77
2022/06/24 09:01:28;;;;;;;9.48;6.85;;;21.30;99.90;;;;;;5042711;28;20256;-78
2022/06/24 09:03:55;;;;;;;8.40;7.20;;;21.30;99.90;;;;;;5042013;28;20237;-77
2022/06/24 09:06:22;;;;;;;8.70;7.25;;;21.40;99.90;;;;;;5034712;28;20269;-76
2022/06/24 09:08:51;;;;;;;7.93;7.13;;;21.50;99.90;;;;;;5039959;28;20213;-77
2022/06/24 09:11:18;;;;;;;8.75;7.53;;;21.50;99.90;;;;;;5039838;28;20214;-77
2022/06/24 09:13:52;;;;;;;9.65;7.97;;;21.50;99.90;;;;;;5045187;28;20231;-77
2022/06/24 09:16:20;;;;;;;10.23;6.90;;;21.50;99.90;;;;;;5037490;28;20209;-77
2022/06/24 09:18:59;;;;;;;10.65;8.43;;;21.40;99.90;;;;;;5040429;28;20681;-77
2022/06/24 09:21:32;;;;;;;11.50;7.10;;;21.50;99.90;;;;;;5041307;28;20216;-76
2022/06/24 09:24:02;;;;;;;8.32;7.45;;;21.50;99.90;;;;;;5040352;28;20264;-78
2022/06/24 09:26:38;;;;;;;12.05;7.78;;;21.60;99.90;;;;;;5041284;28;20633;-77
2022/06/24 09:29:16;;;;;;;8.68;7.32;;;21.80;99.90;;;;;;5041965;28;20296;-75
2022/06/24 09:31:43;;;;;;;8.02;7.22;;;22.00;99.90;;;;;;5040402;28;20213;-77
2022/06/24 09:34:16;;;;;;;7.45;6.60;;;22.00;99.90;;;;;;5042038;28;20224;-78
2022/06/24 09:36:45;;;;;;;7.68;6.88;;;22.20;99.90;;;;;;5039899;28;20210;-78
2022/06/24 09:39:14;;;;;;;9.40;7.95;;;22.40;99.90;;;;;;5041752;28;20213;-77
2022/06/24 09:41:51;;;;;;;8.93;7.30;;;22.60;99.90;;;;;;5041958;28;20216;-77
2022/06/24 09:44:18;;;;;;;7.63;6.65;;;22.80;99.90;;;;;;5039324;28;20259;-79
2022/06/24 09:46:46;;;;;;;8.43;7.32;;;23.10;99.90;;;;;;5076869;28;20239;-76
2022/06/24 09:49:15;;;;;;;10.05;7.60;;;23.40;99.90;;;;;;5040186;28;20244;-78
2022/06/24 09:51:46;;;;;;;8.93;8.02;;;23.50;99.90;;;;;;5038846;28;20202;-77
2022/06/24 09:54:17;;;;;;;8.60;7.68;;;23.60;99.90;;;;;;5038566;28;20363;-78
2022/06/24 09:56:46;;;;;;;8.05;7.30;;;23.70;99.90;;;;;;5037678;28;20731;-77
2022/06/24 10:02:12;;;;;;;8.20;6.82;;;23.80;99.90;;;;;;5040441;28;20209;-77
2022/06/24 10:04:50;;;;;;;9.75;7.10;;;23.90;99.90;;;;;;5038919;28;20665;-78
2022/06/24 10:07:18;;;;;;;9.57;8.65;;;24.20;99.90;;;;;;5034597;28;20280;-77
2022/06/24 10:09:47;;;;;;;15.02;13.02;;;24.40;99.90;;;;;;5040697;28;20223;-78
2022/06/24 10:12:16;;;;;;;10.85;9.90;;;24.50;99.90;;;;;;5041173;28;20213;-77
2022/06/24 10:14:43;;;;;;;13.13;11.55;;;24.60;99.90;;;;;;5039538;28;20640;-76
2022/06/24 10:17:10;;;;;;;14.23;12.82;;;24.50;99.90;;;;;;5040392;28;20271;-75
2022/06/24 10:19:39;;;;;;;13.85;12.45;;;24.60;99.90;;;;;;5074216;28;20233;-76
2022/06/24 10:22:06;;;;;;;13.77;11.48;;;24.60;99.90;;;;;;5039887;28;20248;-76
2022/06/24 10:24:40;;;;;;;14.15;12.77;;;24.80;99.90;;;;;;5042192;28;20204;-79
2022/06/24 10:27:07;;;;;;;14.40;12.98;;;24.90;99.90;;;;;;5040919;28;20201;-78
2022/06/24 10:29:36;;;;;;;13.45;12.00;;;25.10;99.90;;;;;;5040364;28;20226;-77
2022/06/24 10:32:05;;;;;;;16.63;13.95;;;25.30;99.90;;;;;;5043534;28;20201;-79
2022/06/24 10:34:37;;;;;;;14.13;12.60;;;25.40;99.90;;;;;;5039119;28;20629;-76
2022/06/24 10:37:16;;;;;;;13.23;11.80;;;25.60;99.90;;;;;;5039513;28;20581;-76
2022/06/24 10:39:51;;;;;;;11.85;10.75;;;25.70;99.90;;;;;;5038078;28;20233;-78
2022/06/24 10:42:20;;;;;;;11.15;10.00;;;25.90;99.90;;;;;;5038985;28;20208;-75
2022/06/24 10:45:08;;;;;;;12.25;10.60;;;26.00;99.90;;;;;;5040594;28;20205;-77
2022/06/24 10:47:35;;;;;;;11.30;10.20;;;26.10;99.90;;;;;;5042899;28;20303;-77
2022/06/24 10:50:03;;;;;;;11.30;10.13;;;26.10;99.90;;;;;;5048228;28;20226;-76
2022/06/24 10:52:38;;;;;;;12.40;10.55;;;26.20;99.90;;;;;;5045685;28;20733;-75
2022/06/24 10:55:17;;;;;;;12.43;10.70;;;26.20;99.90;;;;;;5041707;28;20216;-77
2022/06/24 10:57:54;;;;;;;14.20;12.60;;;26.20;99.90;;;;;;5038896;28;20573;-76
2022/06/24 11:00:20;;;;;;;14.23;12.82;;;26.00;99.90;;;;;;5037401;28;20264;-77
2022/06/24 11:03:05;;;;;;;17.30;14.15;;;25.90;99.90;;;;;;5040400;28;20221;-77
2022/06/24 11:05:34;;;;;;;14.98;13.18;;;25.90;99.90;;;;;;5036766;28;20670;-77
2022/06/24 11:08:03;;;;;;;17.55;15.75;;;25.80;99.90;;;;;;5036962;28;20213;-76
2022/06/24 11:10:31;;;;;;;16.73;14.98;;;25.70;99.90;;;;;;5028988;28;20218;-77
2022/06/24 11:13:01;;;;;;;17.15;14.73;;;25.80;99.90;;;;;;5035054;28;20214;-76
2022/06/24 11:15:36;;;;;;;16.40;14.70;;;25.90;99.90;;;;;;5039000;28;20213;-78
2022/06/24 11:18:14;;;;;;;17.38;15.70;;;26.00;99.90;;;;;;5036188;28;20264;-77
2022/06/24 11:20:54;;;;;;;19.45;16.70;;;26.10;99.90;;;;;;5037841;28;20260;-75
2022/06/24 11:23:23;;;;;;;18.63;16.63;;;26.10;99.90;;;;;;5036997;28;20208;-76
2022/06/24 11:25:55;;;;;;;19.02;16.95;;;25.90;99.90;;;;;;5039366;28;20663;-77
2022/06/24 11:28:25;;;;;;;18.25;16.33;;;25.60;99.90;;;;;;5039320;28;20244;-76
2022/06/24 11:30:53;;;;;;;20.13;17.98;;;25.60;99.90;;;;;;5028151;28;20268;-77
2022/06/24 11:33:21;;;;;;;19.48;17.58;;;25.30;99.90;;;;;;5027669;28;20254;-77
2022/06/24 11:35:50;;;;;;;18.50;16.58;;;25.10;99.90;;;;;;5059094;28;20256;-76
2022/06/24 11:38:22;;;;;;;22.30;18.17;;;24.90;99.90;;;;;;5027550;28;20210;-76
2022/06/24 11:40:49;;;;;;;19.13;16.70;;;24.90;99.90;;;;;;5028440;28;20230;-77
2022/06/24 11:43:17;;;;;;;19.70;17.60;;;24.80;99.90;;;;;;5036175;28;20213;-76
2022/06/24 11:45:47;;;;;;;18.77;16.88;;;24.80;99.90;;;;;;5037652;28;20555;-77
2022/06/24 11:48:22;;;;;;;17.10;15.48;;;24.70;99.90;;;;;;5038776;28;20209;-77
2022/06/24 11:50:51;;;;;;;19.85;17.95;;;24.80;99.90;;;;;;5035856;28;20212;-77
2022/06/24 11:53:24;;;;;;;18.55;16.63;;;25.00;99.90;;;;;;5036865;28;20209;-77
2022/06/24 11:55:54;;;;;;;17.77;16.05;;;25.40;99.90;;;;;;5036223;28;20617;-75
2022/06/24 11:58:21;;;;;;;19.45;17.48;;;25.90;99.90;;;;;;5038500;28;20732;-76
2022/06/24 12:00:52;;;;;;;17.10;13.93;;;26.30;99.90;;;;;;5037459;28;20225;-79
2022/06/24 12:03:21;;;;;;;18.88;16.98;;;26.60;99.90;;;;;;5036909;28;20983;-77
2022/06/24 12:05:49;;;;;;;16.80;15.18;;;26.80;99.90;;;;;;5035124;28;20205;-78
2022/06/24 12:08:17;;;;;;;17.45;15.55;;;26.80;99.90;;;;;;5031619;28;20198;-78
2022/06/24 12:10:53;;;;;;;18.77;17.02;;;27.00;99.90;;;;;;5038428;28;20244;-77
2022/06/24 12:13:32;;;;;;;16.70;15.10;;;27.10;99.90;;;;;;5037270;28;20212;-78
2022/06/24 12:15:59;;;;;;;16.20;14.68;;;27.20;99.90;;;;;;5038510;28;20578;-78
2022/06/24 12:18:27;;;;;;;13.93;12.57;;;27.30;99.90;;;;;;5036889;28;20618;-74
2022/06/24 12:21:03;;;;;;;13.48;12.27;;;27.40;99.90;;;;;;5036077;28;20228;-79
2022/06/24 12:23:32;;;;;;;13.15;11.80;;;27.60;99.90;;;;;;5035017;28;20250;-76
2022/06/24 12:26:03;;;;;;;10.15;9.02;;;28.00;99.90;;;;;;5039125;28;20278;-78
2022/06/24 12:28:30;;;;;;;8.15;7.35;;;28.30;99.90;;;;;;5036241;28;20213;-78
2022/06/24 12:31:02;;;;;;;6.85;6.18;;;28.60;99.90;;;;;;5069918;28;20209;-79
2022/06/24 12:33:48;;;;;;;5.75;5.13;;;28.80;99.90;;;;;;5035439;28;20276;-78
2022/06/24 12:36:17;;;;;;;5.78;5.20;;;28.70;99.90;;;;;;5034826;28;20202;-77
2022/06/24 12:38:56;;;;;;;5.63;5.13;;;28.40;99.90;;;;;;5037321;28;20251;-77
2022/06/24 12:41:23;;;;;;;5.97;4.90;;;28.30;99.90;;;;;;5037966;28;20695;-78
2022/06/24 12:43:57;;;;;;;5.45;4.95;;;28.00;99.90;;;;;;5035147;28;20252;-78
2022/06/24 12:52:33;;;;;;;8.07;5.35;;;27.20;99.90;;;;;;5038368;28;20255;-79
2022/06/24 12:55:00;;;;;;;6.05;4.90;;;27.00;99.90;;;;;;5052449;28;20213;-79
2022/06/24 12:57:27;;;;;;;5.20;4.72;;;26.90;99.90;;;;;;5035659;28;20265;-76
2022/06/24 12:59:55;;;;;;;6.18;5.60;;;26.80;99.90;;;;;;5037985;28;20221;-78
2022/06/24 13:02:21;;;;;;;7.10;6.40;;;26.60;99.90;;;;;;5038363;28;20221;-78
2022/06/24 13:04:48;;;;;;;7.78;6.50;;;26.40;99.90;;;;;;5035543;28;20225;-78